sensor_id;sensor_type;location;lat;lon;timestamp;pressure;altitude;pressure_sealevel;temperature;humidity
53506;BME280;39388;50.936;6.848;2022-10-31T00:00:08;101487.22;;;15.03;79.38
53506;BME280;39388;50.936;6.848;2022-10-31T00:02:38;101474.31;;;14.95;79.33
53506;BME280;39388;50.936;6.848;2022-10-31T00:05:09;101489.00;;;14.98;79.40
53506;BME280;39388;50.936;6.848;2022-10-31T00:07:40;101481.28;;;14.92;79.10
53506;BME280;39388;50.936;6.848;2022-10-31T00:10:10;101492.50;;;14.94;79.58
53506;BME280;39388;50.936;6.848;2022-10-31T00:12:40;101489.91;;;14.92;79.62
53506;BME280;39388;50.936;6.848;2022-10-31T00:15:11;101485.63;;;14.90;79.86
53506;BME280;39388;50.936;6.848;2022-10-31T00:17:41;101495.13;;;14.89;79.94
53506;BME280;39388;50.936;6.848;2022-10-31T00:20:11;101489.06;;;14.90;79.92
53506;BME280;39388;50.936;6.848;2022-10-31T00:22:42;101484.81;;;14.84;79.84
53506;BME280;39388;50.936;6.848;2022-10-31T00:25:12;101483.97;;;14.84;79.97
53506;BME280;39388;50.936;6.848;2022-10-31T00:27:43;101483.94;;;14.82;80.05
53506;BME280;39388;50.936;6.848;2022-10-31T00:30:13;101467.53;;;14.82;80.11
53506;BME280;39388;50.936;6.848;2022-10-31T00:32:44;101480.50;;;14.80;80.18
53506;BME280;39388;50.936;6.848;2022-10-31T00:35:14;101501.28;;;14.80;80.42
53506;BME280;39388;50.936;6.848;2022-10-31T00:37:45;101495.25;;;14.80;80.45
53506;BME280;39388;50.936;6.848;2022-10-31T00:40:15;101503.03;;;14.77;80.44
53506;BME280;39388;50.936;6.848;2022-10-31T00:42:45;101513.38;;;14.81;80.80
53506;BME280;39388;50.936;6.848;2022-10-31T00:45:16;101517.69;;;14.86;80.65
53506;BME280;39388;50.936;6.848;2022-10-31T00:47:46;101508.19;;;14.81;80.63
53506;BME280;39388;50.936;6.848;2022-10-31T00:50:17;101508.19;;;14.83;80.42
53506;BME280;39388;50.936;6.848;2022-10-31T00:52:47;101515.06;;;14.87;80.40
53506;BME280;39388;50.936;6.848;2022-10-31T00:55:17;101506.47;;;14.79;80.63
53506;BME280;39388;50.936;6.848;2022-10-31T00:57:48;101504.75;;;14.78;80.96
53506;BME280;39388;50.936;6.848;2022-10-31T01:00:18;101493.56;;;14.71;80.74
53506;BME280;39388;50.936;6.848;2022-10-31T01:02:49;101515.09;;;14.79;80.68
53506;BME280;39388;50.936;6.848;2022-10-31T01:05:19;101506.47;;;14.79;80.72
53506;BME280;39388;50.936;6.848;2022-10-31T01:07:50;101491.78;;;14.76;80.75
53506;BME280;39388;50.936;6.848;2022-10-31T01:10:20;101487.50;;;14.72;81.06
53506;BME280;39388;50.936;6.848;2022-10-31T01:12:51;101496.13;;;14.73;81.10
53506;BME280;39388;50.936;6.848;2022-10-31T01:15:22;101486.63;;;14.72;81.09
53506;BME280;39388;50.936;6.848;2022-10-31T01:17:52;101484.91;;;14.69;81.18
53506;BME280;39388;50.936;6.848;2022-10-31T01:20:23;101490.13;;;14.67;81.18
53506;BME280;39388;50.936;6.848;2022-10-31T01:22:53;101487.56;;;14.64;81.03
53506;BME280;39388;50.936;6.848;2022-10-31T01:25:23;101478.97;;;14.58;81.13
53506;BME280;39388;50.936;6.848;2022-10-31T01:27:54;101479.81;;;14.60;81.34
53506;BME280;39388;50.936;6.848;2022-10-31T01:30:24;101474.69;;;14.55;81.34
53506;BME280;39388;50.936;6.848;2022-10-31T01:32:54;101477.28;;;14.55;81.29
53506;BME280;39388;50.936;6.848;2022-10-31T01:35:25;101476.41;;;14.54;81.39
53506;BME280;39388;50.936;6.848;2022-10-31T01:37:55;101467.75;;;14.56;81.48
53506;BME280;39388;50.936;6.848;2022-10-31T01:40:29;101457.38;;;14.52;81.62
53506;BME280;39388;50.936;6.848;2022-10-31T01:43:00;101466.03;;;14.54;81.66
53506;BME280;39388;50.936;6.848;2022-10-31T01:45:30;101459.97;;;14.52;81.87
53506;BME280;39388;50.936;6.848;2022-10-31T01:48:00;101454.88;;;14.45;81.90
53506;BME280;39388;50.936;6.848;2022-10-31T01:50:35;101461.78;;;14.47;82.13
53506;BME280;39388;50.936;6.848;2022-10-31T01:53:09;101460.94;;;14.42;81.85
53506;BME280;39388;50.936;6.848;2022-10-31T01:55:44;101455.78;;;14.41;82.22
53506;BME280;39388;50.936;6.848;2022-10-31T01:58:19;101458.38;;;14.41;82.25
53506;BME280;39388;50.936;6.848;2022-10-31T02:00:54;101451.47;;;14.38;82.28
53506;BME280;39388;50.936;6.848;2022-10-31T02:03:26;101454.06;;;14.35;82.16
53506;BME280;39388;50.936;6.848;2022-10-31T02:05:58;101460.16;;;14.32;82.60
53506;BME280;39388;50.936;6.848;2022-10-31T02:08:30;101459.31;;;14.32;82.53
53506;BME280;39388;50.936;6.848;2022-10-31T02:11:01;101461.94;;;14.26;82.52
53506;BME280;39388;50.936;6.848;2022-10-31T02:13:33;101458.50;;;14.23;82.92
53506;BME280;39388;50.936;6.848;2022-10-31T02:16:04;101463.69;;;14.25;82.93
53506;BME280;39388;50.936;6.848;2022-10-31T02:18:34;101463.72;;;14.19;83.20
53506;BME280;39388;50.936;6.848;2022-10-31T02:21:36;101475.78;;;14.24;83.13
53506;BME280;39388;50.936;6.848;2022-10-31T02:30:18;101469.00;;;14.13;83.19
53506;BME280;39388;50.936;6.848;2022-10-31T02:35:53;101475.06;;;14.07;83.46
53506;BME280;39388;50.936;6.848;2022-10-31T02:44:36;101480.31;;;14.01;83.70
53506;BME280;39388;50.936;6.848;2022-10-31T02:47:14;101480.28;;;14.04;83.56
53506;BME280;39388;50.936;6.848;2022-10-31T02:49:50;101477.69;;;13.99;82.80
53506;BME280;39388;50.936;6.848;2022-10-31T02:52:26;101469.09;;;13.94;83.46
53506;BME280;39388;50.936;6.848;2022-10-31T02:54:57;101478.59;;;13.95;83.50
53506;BME280;39388;50.936;6.848;2022-10-31T02:57:33;101476.03;;;13.92;83.64
53506;BME280;39388;50.936;6.848;2022-10-31T03:00:07;101473.47;;;13.87;83.72
53506;BME280;39388;50.936;6.848;2022-10-31T03:05:18;101470.06;;;13.84;83.96
53506;BME280;39388;50.936;6.848;2022-10-31T03:16:12;101480.44;;;13.81;83.86
53506;BME280;39388;50.936;6.848;2022-10-31T03:19:17;101485.63;;;13.81;84.03
53506;BME280;39388;50.936;6.848;2022-10-31T03:22:00;101474.41;;;13.74;84.04
53506;BME280;39388;50.936;6.848;2022-10-31T03:24:37;101472.69;;;13.74;83.83
53506;BME280;39388;50.936;6.848;2022-10-31T03:27:10;101478.72;;;13.73;84.08
53506;BME280;39388;50.936;6.848;2022-10-31T03:29:43;101489.09;;;13.73;84.45
53506;BME280;39388;50.936;6.848;2022-10-31T03:32:19;101478.72;;;13.76;84.30
53506;BME280;39388;50.936;6.848;2022-10-31T03:34:53;101475.25;;;13.77;83.91
53506;BME280;39388;50.936;6.848;2022-10-31T03:37:27;101481.34;;;13.75;84.28
53506;BME280;39388;50.936;6.848;2022-10-31T03:40:00;101465.78;;;13.72;84.61
53506;BME280;39388;50.936;6.848;2022-10-31T03:42:36;101464.94;;;13.67;84.41
53506;BME280;39388;50.936;6.848;2022-10-31T03:45:16;101473.56;;;13.69;84.26
53506;BME280;39388;50.936;6.848;2022-10-31T03:47:49;101473.59;;;13.67;84.70
53506;BME280;39388;50.936;6.848;2022-10-31T03:50:21;101468.41;;;13.67;84.68
53506;BME280;39388;50.936;6.848;2022-10-31T03:53:30;101464.91;;;13.71;84.89
53506;BME280;39388;50.936;6.848;2022-10-31T03:56:09;101465.78;;;13.75;84.52
53506;BME280;39388;50.936;6.848;2022-10-31T03:58:58;101467.50;;;13.76;84.47
53506;BME280;39388;50.936;6.848;2022-10-31T04:01:32;101455.41;;;13.73;84.53
53506;BME280;39388;50.936;6.848;2022-10-31T04:04:05;101461.47;;;13.74;84.57
53506;BME280;39388;50.936;6.848;2022-10-31T04:06:39;101468.38;;;13.75;84.77
53506;BME280;39388;50.936;6.848;2022-10-31T04:09:12;101472.66;;;13.77;84.74
53506;BME280;39388;50.936;6.848;2022-10-31T04:11:45;101476.97;;;13.80;84.83
53506;BME280;39388;50.936;6.848;2022-10-31T04:14:17;101478.69;;;13.83;84.37
53506;BME280;39388;50.936;6.848;2022-10-31T04:16:47;101472.63;;;13.85;84.10
53506;BME280;39388;50.936;6.848;2022-10-31T04:19:17;101472.63;;;13.85;84.18
53506;BME280;39388;50.936;6.848;2022-10-31T04:21:48;101464.84;;;13.85;84.33
53506;BME280;39388;50.936;6.848;2022-10-31T04:24:18;101464.81;;;13.87;84.73
53506;BME280;39388;50.936;6.848;2022-10-31T04:26:48;101467.41;;;13.90;84.74
53506;BME280;39388;50.936;6.848;2022-10-31T04:29:19;101467.38;;;13.95;84.85
53506;BME280;39388;50.936;6.848;2022-10-31T04:31:49;101466.50;;;13.96;84.87
53506;BME280;39388;50.936;6.848;2022-10-31T04:34:20;101454.41;;;13.93;84.80
53506;BME280;39388;50.936;6.848;2022-10-31T04:36:50;101455.28;;;13.95;84.98
53506;BME280;39388;50.936;6.848;2022-10-31T04:39:21;101456.13;;;13.96;85.14
53506;BME280;39388;50.936;6.848;2022-10-31T04:41:52;101454.44;;;13.90;85.11
53506;BME280;39388;50.936;6.848;2022-10-31T04:44:22;101458.78;;;13.89;85.13
53506;BME280;39388;50.936;6.848;2022-10-31T04:46:53;101461.38;;;13.89;85.04
53506;BME280;39388;50.936;6.848;2022-10-31T04:49:23;101456.13;;;13.92;85.25
53506;BME280;39388;50.936;6.848;2022-10-31T04:51:53;101452.72;;;13.86;85.25
53506;BME280;39388;50.936;6.848;2022-10-31T04:54:24;101457.03;;;13.87;85.38
53506;BME280;39388;50.936;6.848;2022-10-31T04:56:54;101453.59;;;13.86;85.36
53506;BME280;39388;50.936;6.848;2022-10-31T04:59:24;101445.00;;;13.81;85.85
53506;BME280;39388;50.936;6.848;2022-10-31T05:01:55;101438.03;;;13.85;85.64
53506;BME280;39388;50.936;6.848;2022-10-31T05:04:25;101426.00;;;13.79;85.56
53506;BME280;39388;50.936;6.848;2022-10-31T05:06:56;101438.94;;;13.79;85.56
53506;BME280;39388;50.936;6.848;2022-10-31T05:09:26;101438.06;;;13.80;85.66
53506;BME280;39388;50.936;6.848;2022-10-31T05:11:57;101433.78;;;13.77;85.61
53506;BME280;39388;50.936;6.848;2022-10-31T05:14:27;101432.03;;;13.78;85.88
53506;BME280;39388;50.936;6.848;2022-10-31T05:16:57;101433.81;;;13.76;85.72
53506;BME280;39388;50.936;6.848;2022-10-31T05:19:28;101433.81;;;13.71;85.84
53506;BME280;39388;50.936;6.848;2022-10-31T05:21:58;101432.13;;;13.67;85.70
53506;BME280;39388;50.936;6.848;2022-10-31T05:24:28;101437.31;;;13.66;85.76
53506;BME280;39388;50.936;6.848;2022-10-31T05:26:59;101425.25;;;13.63;85.75
53506;BME280;39388;50.936;6.848;2022-10-31T05:29:29;101426.13;;;13.60;85.74
53506;BME280;39388;50.936;6.848;2022-10-31T05:32:03;101428.72;;;13.57;85.78
53506;BME280;39388;50.936;6.848;2022-10-31T05:34:33;101421.84;;;13.53;85.80
53506;BME280;39388;50.936;6.848;2022-10-31T05:37:04;101416.69;;;13.49;85.97
53506;BME280;39388;50.936;6.848;2022-10-31T05:39:34;101418.44;;;13.45;86.13
53506;BME280;39388;50.936;6.848;2022-10-31T05:42:04;101411.53;;;13.38;86.15
53506;BME280;39388;50.936;6.848;2022-10-31T05:44:35;101403.81;;;13.31;86.26
53506;BME280;39388;50.936;6.848;2022-10-31T05:47:05;101418.47;;;13.34;86.36
53506;BME280;39388;50.936;6.848;2022-10-31T05:49:35;101421.06;;;13.39;86.69
53506;BME280;39388;50.936;6.848;2022-10-31T05:52:06;101412.44;;;13.30;86.18
53506;BME280;39388;50.936;6.848;2022-10-31T05:54:36;101423.63;;;13.36;86.46
53506;BME280;39388;50.936;6.848;2022-10-31T05:57:06;101411.56;;;13.31;86.31
53506;BME280;39388;50.936;6.848;2022-10-31T05:59:37;101422.78;;;13.35;86.46
53506;BME280;39388;50.936;6.848;2022-10-31T06:02:07;101425.38;;;13.35;86.63
53506;BME280;39388;50.936;6.848;2022-10-31T06:04:37;101419.34;;;13.31;86.51
53506;BME280;39388;50.936;6.848;2022-10-31T06:07:08;101414.16;;;13.30;86.62
53506;BME280;39388;50.936;6.848;2022-10-31T06:09:38;101418.47;;;13.28;86.55
53506;BME280;39388;50.936;6.848;2022-10-31T06:12:09;101415.91;;;13.26;86.55
53506;BME280;39388;50.936;6.848;2022-10-31T06:14:39;101414.19;;;13.25;86.77
53506;BME280;39388;50.936;6.848;2022-10-31T06:17:09;101415.06;;;13.23;86.64
53506;BME280;39388;50.936;6.848;2022-10-31T06:19:40;101419.38;;;13.22;86.36
53506;BME280;39388;50.936;6.848;2022-10-31T06:22:10;101421.13;;;13.19;86.48
53506;BME280;39388;50.936;6.848;2022-10-31T06:24:43;101422.84;;;13.20;86.67
53506;BME280;39388;50.936;6.848;2022-10-31T06:27:14;101417.66;;;13.16;86.60
53506;BME280;39388;50.936;6.848;2022-10-31T06:29:44;101423.72;;;13.15;86.37
53506;BME280;39388;50.936;6.848;2022-10-31T06:32:18;101421.13;;;13.15;86.48
53506;BME280;39388;50.936;6.848;2022-10-31T06:34:49;101416.84;;;13.13;86.40
53506;BME280;39388;50.936;6.848;2022-10-31T06:37:19;101410.81;;;13.06;86.51
53506;BME280;39388;50.936;6.848;2022-10-31T06:39:49;101418.56;;;13.09;86.64
53506;BME280;39388;50.936;6.848;2022-10-31T06:42:20;101416.00;;;13.06;86.80
53506;BME280;39388;50.936;6.848;2022-10-31T06:44:50;101411.66;;;13.07;86.66
53506;BME280;39388;50.936;6.848;2022-10-31T06:47:20;101405.66;;;13.01;86.56
53506;BME280;39388;50.936;6.848;2022-10-31T06:49:51;101405.66;;;13.05;86.87
53506;BME280;39388;50.936;6.848;2022-10-31T06:52:21;101407.38;;;13.07;86.61
53506;BME280;39388;50.936;6.848;2022-10-31T06:54:53;101409.09;;;13.08;86.92
53506;BME280;39388;50.936;6.848;2022-10-31T06:57:23;101403.03;;;13.08;86.85
53506;BME280;39388;50.936;6.848;2022-10-31T06:59:54;101421.13;;;13.17;86.67
53506;BME280;39388;50.936;6.848;2022-10-31T07:02:24;101411.59;;;13.22;86.20
53506;BME280;39388;50.936;6.848;2022-10-31T07:04:54;101403.84;;;13.21;86.37
53506;BME280;39388;50.936;6.848;2022-10-31T07:07:25;101415.88;;;13.28;86.34
53506;BME280;39388;50.936;6.848;2022-10-31T07:09:55;101420.19;;;13.29;85.80
53506;BME280;39388;50.936;6.848;2022-10-31T07:12:25;101411.59;;;13.27;86.06
53506;BME280;39388;50.936;6.848;2022-10-31T07:14:56;101423.66;;;13.32;86.18
53506;BME280;39388;50.936;6.848;2022-10-31T07:17:26;101427.94;;;13.37;85.99
53506;BME280;39388;50.936;6.848;2022-10-31T07:19:56;101438.31;;;13.43;85.75
53506;BME280;39388;50.936;6.848;2022-10-31T07:22:36;101445.19;;;13.49;85.49
53506;BME280;39388;50.936;6.848;2022-10-31T07:25:07;101440.84;;;13.49;85.28
53506;BME280;39388;50.936;6.848;2022-10-31T07:27:42;101453.78;;;13.55;85.41
53506;BME280;39388;50.936;6.848;2022-10-31T07:30:13;101445.16;;;13.55;85.20
53506;BME280;39388;50.936;6.848;2022-10-31T07:32:49;101460.66;;;13.58;85.52
53506;BME280;39388;50.936;6.848;2022-10-31T07:35:22;101455.50;;;13.58;85.09
53506;BME280;39388;50.936;6.848;2022-10-31T07:37:53;101466.69;;;13.63;85.14
53506;BME280;39388;50.936;6.848;2022-10-31T07:40:24;101455.47;;;13.61;84.98
53506;BME280;39388;50.936;6.848;2022-10-31T07:42:57;101450.31;;;13.58;84.92
53506;BME280;39388;50.936;6.848;2022-10-31T07:45:27;101444.25;;;13.60;84.89
53506;BME280;39388;50.936;6.848;2022-10-31T07:47:58;101435.63;;;13.58;84.83
53506;BME280;39388;50.936;6.848;2022-10-31T07:50:30;101434.75;;;13.62;84.91
53506;BME280;39388;50.936;6.848;2022-10-31T07:53:04;101442.50;;;13.66;84.94
53506;BME280;39388;50.936;6.848;2022-10-31T07:55:35;101445.06;;;13.69;84.79
53506;BME280;39388;50.936;6.848;2022-10-31T07:58:08;101446.78;;;13.71;84.64
53506;BME280;39388;50.936;6.848;2022-10-31T08:00:42;101449.38;;;13.71;84.43
53506;BME280;39388;50.936;6.848;2022-10-31T08:03:15;101448.50;;;13.74;84.60
53506;BME280;39388;50.936;6.848;2022-10-31T08:05:46;101445.03;;;13.76;84.65
53506;BME280;39388;50.936;6.848;2022-10-31T08:08:17;101439.84;;;13.76;84.38
53506;BME280;39388;50.936;6.848;2022-10-31T08:10:47;101445.03;;;13.76;84.30
53506;BME280;39388;50.936;6.848;2022-10-31T08:13:18;101445.00;;;13.78;84.35
53506;BME280;39388;50.936;6.848;2022-10-31T08:15:48;101439.84;;;13.76;84.29
53506;BME280;39388;50.936;6.848;2022-10-31T08:18:20;101448.44;;;13.80;84.54
53506;BME280;39388;50.936;6.848;2022-10-31T08:20:53;101432.91;;;13.78;84.66
53506;BME280;39388;50.936;6.848;2022-10-31T08:23:23;101437.22;;;13.80;84.36
53506;BME280;39388;50.936;6.848;2022-10-31T08:25:54;101444.97;;;13.84;84.35
53506;BME280;39388;50.936;6.848;2022-10-31T08:28:24;101420.81;;;13.77;84.28
53506;BME280;39388;50.936;6.848;2022-10-31T08:30:57;101432.81;;;13.91;84.24
53506;BME280;39388;50.936;6.848;2022-10-31T08:33:27;101439.72;;;13.98;84.17
53506;BME280;39388;50.936;6.848;2022-10-31T08:35:58;101425.84;;;14.01;84.00
53506;BME280;39388;50.936;6.848;2022-10-31T08:38:28;101428.41;;;14.05;83.87
53506;BME280;39388;50.936;6.848;2022-10-31T08:40:58;101417.16;;;14.06;83.92
53506;BME280;39388;50.936;6.848;2022-10-31T08:43:29;101420.56;;;14.13;84.03
53506;BME280;39388;50.936;6.848;2022-10-31T08:45:59;101416.22;;;14.15;83.90
53506;BME280;39388;50.936;6.848;2022-10-31T08:48:30;101412.72;;;14.21;83.98
53506;BME280;39388;50.936;6.848;2022-10-31T08:51:02;101411.81;;;14.25;83.66
53506;BME280;39388;50.936;6.848;2022-10-31T08:53:32;101408.31;;;14.28;83.12
53506;BME280;39388;50.936;6.848;2022-10-31T08:56:02;101413.44;;;14.35;83.15
53506;BME280;39388;50.936;6.848;2022-10-31T08:58:33;101403.84;;;14.44;83.21
53506;BME280;39388;50.936;6.848;2022-10-31T09:01:03;101406.34;;;14.54;83.08
53506;BME280;39388;50.936;6.848;2022-10-31T09:03:34;101401.06;;;14.62;82.82
53506;BME280;39388;50.936;6.848;2022-10-31T09:06:04;101399.22;;;14.74;82.72
53506;BME280;39388;50.936;6.848;2022-10-31T09:08:38;101387.13;;;14.71;82.58
53506;BME280;39388;50.936;6.848;2022-10-31T09:11:09;101396.50;;;14.86;82.96
53506;BME280;39388;50.936;6.848;2022-10-31T09:13:39;101400.78;;;14.90;82.64
53506;BME280;39388;50.936;6.848;2022-10-31T09:16:09;101395.53;;;14.95;82.40
53506;BME280;39388;50.936;6.848;2022-10-31T09:18:40;101392.00;;;15.00;82.23
53506;BME280;39388;50.936;6.848;2022-10-31T09:21:10;101383.41;;;14.98;82.29
53506;BME280;39388;50.936;6.848;2022-10-31T09:23:40;101381.53;;;15.07;82.22
53506;BME280;39388;50.936;6.848;2022-10-31T09:26:11;101373.78;;;15.05;82.19
53506;BME280;39388;50.936;6.848;2022-10-31T09:28:41;101378.84;;;15.14;81.89
53506;BME280;39388;50.936;6.848;2022-10-31T09:31:11;101365.81;;;15.18;81.94
53506;BME280;39388;50.936;6.848;2022-10-31T09:33:42;101365.72;;;15.25;81.94
53506;BME280;39388;50.936;6.848;2022-10-31T09:36:12;101374.28;;;15.30;81.40
53506;BME280;39388;50.936;6.848;2022-10-31T09:38:43;101373.34;;;15.38;81.36
53506;BME280;39388;50.936;6.848;2022-10-31T09:41:22;101361.06;;;15.46;80.96
53506;BME280;39388;50.936;6.848;2022-10-31T09:46:58;101339.22;;;15.59;80.60
53506;BME280;39388;50.936;6.848;2022-10-31T09:52:24;101339.59;;;15.91;79.91
53506;BME280;39388;50.936;6.848;2022-10-31T09:55:14;101336.69;;;16.06;79.38
53506;BME280;39388;50.936;6.848;2022-10-31T09:57:47;101328.72;;;16.17;79.17
53506;BME280;39388;50.936;6.848;2022-10-31T10:00:20;101338.00;;;16.32;78.86
53506;BME280;39388;50.936;6.848;2022-10-31T10:05:36;101324.63;;;16.52;78.21
53506;BME280;39388;50.936;6.848;2022-10-31T10:08:10;101326.84;;;16.70;78.08
53506;BME280;39388;50.936;6.848;2022-10-31T10:16:58;101309.63;;;17.05;77.05
53506;BME280;39388;50.936;6.848;2022-10-31T10:25:37;101283.97;;;17.27;76.02
53506;BME280;39388;50.936;6.848;2022-10-31T10:28:32;101283.19;;;17.22;75.67
53506;BME280;39388;50.936;6.848;2022-10-31T10:31:16;101268.50;;;17.18;76.13
53506;BME280;39388;50.936;6.848;2022-10-31T10:34:26;101271.78;;;17.27;76.11
53506;BME280;39388;50.936;6.848;2022-10-31T10:37:03;101270.72;;;17.36;75.63
53506;BME280;39388;50.936;6.848;2022-10-31T10:39:45;101280.06;;;17.45;75.68
53506;BME280;39388;50.936;6.848;2022-10-31T10:42:18;101279.88;;;17.51;75.84
53506;BME280;39388;50.936;6.848;2022-10-31T10:45:15;101275.28;;;17.63;75.51
53506;BME280;39388;50.936;6.848;2022-10-31T10:48:32;101263.84;;;17.68;75.05
53506;BME280;39388;50.936;6.848;2022-10-31T10:51:06;101248.09;;;17.71;74.90
53506;BME280;39388;50.936;6.848;2022-10-31T10:54:01;101243.47;;;17.81;74.60
53506;BME280;39388;50.936;6.848;2022-10-31T10:56:44;101234.94;;;17.76;74.40
53506;BME280;39388;50.936;6.848;2022-10-31T10:59:20;101236.75;;;17.74;74.38
53506;BME280;39388;50.936;6.848;2022-10-31T11:01:52;101235.72;;;17.78;74.21
53506;BME280;39388;50.936;6.848;2022-10-31T11:04:32;101252.25;;;17.79;74.08
53506;BME280;39388;50.936;6.848;2022-10-31T11:07:04;101260.00;;;17.82;74.36
53506;BME280;39388;50.936;6.848;2022-10-31T11:09:35;101258.09;;;17.88;74.24
53506;BME280;39388;50.936;6.848;2022-10-31T11:12:16;101254.53;;;17.91;74.39
53506;BME280;39388;50.936;6.848;2022-10-31T11:14:53;101254.38;;;17.97;74.03
53506;BME280;39388;50.936;6.848;2022-10-31T11:17:38;101254.16;;;18.05;73.82
53506;BME280;39388;50.936;6.848;2022-10-31T11:22:45;101236.41;;;18.18;73.52
53506;BME280;39388;50.936;6.848;2022-10-31T11:25:25;101239.88;;;18.18;73.45
53506;BME280;39388;50.936;6.848;2022-10-31T11:28:00;101235.56;;;18.17;73.36
53506;BME280;39388;50.936;6.848;2022-10-31T11:30:42;101232.13;;;18.15;73.41
53506;BME280;39388;50.936;6.848;2022-10-31T11:33:33;101230.34;;;18.17;73.39
53506;BME280;39388;50.936;6.848;2022-10-31T11:36:23;101223.31;;;18.19;73.14
53506;BME280;39388;50.936;6.848;2022-10-31T11:38:54;101199.78;;;18.21;73.13
53506;BME280;39388;50.936;6.848;2022-10-31T11:41:30;101197.03;;;18.26;72.85
53506;BME280;39388;50.936;6.848;2022-10-31T11:44:05;101191.81;;;18.26;72.45
53506;BME280;39388;50.936;6.848;2022-10-31T11:46:52;101184.84;;;18.26;72.42
53506;BME280;39388;50.936;6.848;2022-10-31T11:49:36;101192.69;;;18.26;72.43
53506;BME280;39388;50.936;6.848;2022-10-31T11:52:13;101182.31;;;18.23;72.21
53506;BME280;39388;50.936;6.848;2022-10-31T11:54:58;101182.94;;;18.31;72.14
53506;BME280;39388;50.936;6.848;2022-10-31T11:57:33;101178.47;;;18.37;72.40
53506;BME280;39388;50.936;6.848;2022-10-31T12:05:55;101166.09;;;18.43;71.94
53506;BME280;39388;50.936;6.848;2022-10-31T12:08:34;101160.00;;;18.43;71.88
53506;BME280;39388;50.936;6.848;2022-10-31T12:11:27;101147.88;;;18.42;71.73
53506;BME280;39388;50.936;6.848;2022-10-31T12:28:39;101134.28;;;18.59;71.64
53506;BME280;39388;50.936;6.848;2022-10-31T12:37:19;101111.59;;;18.61;71.57
53506;BME280;39388;50.936;6.848;2022-10-31T12:46:00;101079.59;;;18.54;71.33
53506;BME280;39388;50.936;6.848;2022-10-31T12:52:30;101066.63;;;18.51;71.28
53506;BME280;39388;50.936;6.848;2022-10-31T12:57:40;101046.72;;;18.48;71.36
53506;BME280;39388;50.936;6.848;2022-10-31T13:00:15;101044.88;;;18.50;71.40
53506;BME280;39388;50.936;6.848;2022-10-31T13:05:40;101026.41;;;18.57;71.21
53506;BME280;39388;50.936;6.848;2022-10-31T13:08:16;101021.03;;;18.61;71.35
53506;BME280;39388;50.936;6.848;2022-10-31T13:10:52;101015.59;;;18.68;71.25
53506;BME280;39388;50.936;6.848;2022-10-31T13:24:35;101004.66;;;18.81;70.57
53506;BME280;39388;50.936;6.848;2022-10-31T13:27:14;101004.63;;;18.83;70.31
53506;BME280;39388;50.936;6.848;2022-10-31T13:32:38;101008.88;;;18.86;69.92
53506;BME280;39388;50.936;6.848;2022-10-31T13:38:03;100988.16;;;18.81;70.35
53506;BME280;39388;50.936;6.848;2022-10-31T13:40:46;100976.84;;;18.80;70.34
53506;BME280;39388;50.936;6.848;2022-10-31T13:46:25;100973.38;;;18.80;70.39
53506;BME280;39388;50.936;6.848;2022-10-31T13:48:56;100971.75;;;18.77;70.50
53506;BME280;39388;50.936;6.848;2022-10-31T13:51:29;100974.44;;;18.74;70.41
53506;BME280;39388;50.936;6.848;2022-10-31T13:54:05;100963.25;;;18.71;70.45
53506;BME280;39388;50.936;6.848;2022-10-31T13:56:36;100960.84;;;18.64;70.75
53506;BME280;39388;50.936;6.848;2022-10-31T14:02:01;100947.00;;;18.62;70.67
53506;BME280;39388;50.936;6.848;2022-10-31T14:04:59;100944.97;;;18.71;70.55
53506;BME280;39388;50.936;6.848;2022-10-31T14:07:31;100931.13;;;18.69;70.51
53506;BME280;39388;50.936;6.848;2022-10-31T14:10:21;100921.47;;;18.71;70.58
53506;BME280;39388;50.936;6.848;2022-10-31T14:18:36;100909.31;;;18.70;70.38
53506;BME280;39388;50.936;6.848;2022-10-31T14:21:40;100907.38;;;18.75;70.21
53506;BME280;39388;50.936;6.848;2022-10-31T14:27:02;100889.16;;;18.73;70.27
53506;BME280;39388;50.936;6.848;2022-10-31T14:29:33;100897.91;;;18.72;70.35
53506;BME280;39388;50.936;6.848;2022-10-31T14:35:02;100901.34;;;18.73;70.33
53506;BME280;39388;50.936;6.848;2022-10-31T14:38:13;100899.66;;;18.72;70.34
53506;BME280;39388;50.936;6.848;2022-10-31T14:41:09;100895.28;;;18.72;70.31
53506;BME280;39388;50.936;6.848;2022-10-31T14:49:36;100869.16;;;18.72;70.43
53506;BME280;39388;50.936;6.848;2022-10-31T14:52:08;100866.63;;;18.71;70.45
53506;BME280;39388;50.936;6.848;2022-10-31T14:54:47;100852.81;;;18.67;70.47
53506;BME280;39388;50.936;6.848;2022-10-31T14:57:23;100851.69;;;18.74;70.29
53506;BME280;39388;50.936;6.848;2022-10-31T15:00:00;100843.88;;;18.73;69.98
53506;BME280;39388;50.936;6.848;2022-10-31T15:02:58;100846.47;;;18.74;70.26
53506;BME280;39388;50.936;6.848;2022-10-31T15:05:34;100845.66;;;18.72;70.35
53506;BME280;39388;50.936;6.848;2022-10-31T15:08:32;100848.34;;;18.71;70.19
53506;BME280;39388;50.936;6.848;2022-10-31T15:11:12;100836.34;;;18.65;70.27
53506;BME280;39388;50.936;6.848;2022-10-31T15:13:47;100834.47;;;18.69;70.19
53506;BME280;39388;50.936;6.848;2022-10-31T15:16:32;100831.19;;;18.63;70.47
53506;BME280;39388;50.936;6.848;2022-10-31T15:19:07;100831.97;;;18.65;70.64
53506;BME280;39388;50.936;6.848;2022-10-31T15:21:43;100824.06;;;18.67;70.15
53506;BME280;39388;50.936;6.848;2022-10-31T15:24:17;100824.16;;;18.65;70.36
53506;BME280;39388;50.936;6.848;2022-10-31T15:26:50;100813.88;;;18.61;70.18
53506;BME280;39388;50.936;6.848;2022-10-31T15:29:23;100822.72;;;18.57;70.10
53506;BME280;39388;50.936;6.848;2022-10-31T15:31:58;100815.91;;;18.53;70.08
53506;BME280;39388;50.936;6.848;2022-10-31T15:34:37;100800.56;;;18.43;70.08
53506;BME280;39388;50.936;6.848;2022-10-31T15:37:13;100798.97;;;18.39;70.27